Time;durP1;ratioP1;P1;durP2;ratioP2;P2;SDS_P1;SDS_P2;PMS_P1;PMS_P2;Temp;Humidity;BMP_temperature;BMP_pressure;BME280_temperature;BME280_humidity;BME280_pressure;Samples;Min_cycle;Max_cycle;Signal;HPM_P1;HPM_P2
2021/10/26 00:01:12;;;;;;;5.30;4.50;;;19.80;54.40;;;;;;5023708;28;20451;-85
2021/10/26 00:03:41;;;;;;;5.40;4.90;;;19.80;54.30;;;;;;5023894;28;20493;-84
2021/10/26 00:06:10;;;;;;;4.40;4.00;;;19.80;54.30;;;;;;5023352;28;20513;-85
2021/10/26 00:08:38;;;;;;;6.13;4.97;;;19.80;54.30;;;;;;5027718;28;20455;-85
2021/10/26 00:11:06;;;;;;;4.57;4.23;;;19.80;54.30;;;;;;5027516;28;20439;-86
2021/10/26 00:13:34;;;;;;;5.43;4.93;;;19.80;54.30;;;;;;5027679;28;20456;-85
2021/10/26 00:16:02;;;;;;;4.67;4.27;;;19.70;54.20;;;;;;5027609;28;20419;-86
2021/10/26 00:18:32;;;;;;;6.40;4.70;;;19.70;54.40;;;;;;5028007;28;20525;-85
2021/10/26 00:21:00;;;;;;;5.03;4.53;;;19.70;54.30;;;;;;5025567;28;20443;-85
2021/10/26 00:23:28;;;;;;;4.70;4.30;;;19.70;54.20;;;;;;5027196;28;20505;-85
2021/10/26 00:25:56;;;;;;;4.60;4.20;;;19.70;54.40;;;;;;5024854;28;20531;-85
2021/10/26 00:28:24;;;;;;;4.67;4.17;;;19.70;54.30;;;;;;5027197;28;20559;-85
2021/10/26 00:30:52;;;;;;;7.17;4.57;;;19.70;54.30;;;;;;5022283;28;20568;-86
2021/10/26 00:33:20;;;;;;;4.63;4.10;;;19.80;54.50;;;;;;5027532;28;20551;-85
2021/10/26 00:35:49;;;;;;;5.03;4.33;;;19.70;54.40;;;;;;5027974;28;20431;-86
2021/10/26 00:38:18;;;;;;;4.47;4.10;;;19.70;54.30;;;;;;5026934;28;20435;-85
2021/10/26 00:40:46;;;;;;;4.67;4.20;;;19.70;54.30;;;;;;5027330;28;20440;-86
2021/10/26 00:43:14;;;;;;;5.33;4.50;;;19.70;54.50;;;;;;5027395;28;20491;-86
2021/10/26 00:45:42;;;;;;;5.27;4.77;;;19.70;54.40;;;;;;5027616;28;20483;-86
2021/10/26 00:48:10;;;;;;;6.10;4.27;;;19.80;54.50;;;;;;5027796;28;20439;-86
2021/10/26 00:50:38;;;;;;;5.40;4.47;;;19.70;54.40;;;;;;5027524;28;20443;-86
2021/10/26 00:53:08;;;;;;;5.30;4.03;;;19.70;54.40;;;;;;5027590;28;20436;-85
2021/10/26 00:55:36;;;;;;;4.80;4.30;;;19.70;54.40;;;;;;5027445;28;20530;-86
2021/10/26 00:58:04;;;;;;;4.17;3.87;;;19.70;54.30;;;;;;5037754;28;20455;-86
2021/10/26 01:00:32;;;;;;;4.20;3.80;;;19.70;54.30;;;;;;5047419;28;20508;-86
2021/10/26 01:03:00;;;;;;;5.07;4.57;;;19.70;54.40;;;;;;5047350;28;20439;-86
2021/10/26 01:05:28;;;;;;;4.67;4.10;;;19.70;54.30;;;;;;5046695;28;20478;-85
2021/10/26 01:07:57;;;;;;;4.50;4.10;;;19.70;54.30;;;;;;5047220;28;20500;-86
2021/10/26 01:10:26;;;;;;;5.10;4.60;;;19.70;54.20;;;;;;5050890;28;20450;-86
2021/10/26 01:12:55;;;;;;;7.10;4.90;;;19.70;54.30;;;;;;5047018;28;20476;-86
2021/10/26 01:15:23;;;;;;;4.70;4.20;;;19.70;54.30;;;;;;5047141;28;20435;-86
2021/10/26 01:17:51;;;;;;;5.43;4.90;;;19.70;54.30;;;;;;5046488;28;20430;-86
2021/10/26 01:20:20;;;;;;;4.83;4.43;;;19.80;54.40;;;;;;5047434;28;20450;-85
2021/10/26 01:22:48;;;;;;;5.30;4.67;;;19.70;54.30;;;;;;5047524;28;20454;-86
2021/10/26 01:25:16;;;;;;;5.27;4.77;;;19.70;54.30;;;;;;5047192;28;20471;-86
2021/10/26 01:27:47;;;;;;;5.37;4.97;;;19.80;54.40;;;;;;5047033;28;20443;-86
2021/10/26 01:30:15;;;;;;;5.47;4.63;;;19.80;54.40;;;;;;5047081;28;20443;-85
2021/10/26 01:32:43;;;;;;;4.73;4.30;;;19.70;54.30;;;;;;5041987;28;20474;-86
2021/10/26 01:35:11;;;;;;;6.93;4.60;;;19.70;54.30;;;;;;5047195;28;20465;-85
2021/10/26 01:37:42;;;;;;;5.30;4.70;;;19.70;54.30;;;;;;5046986;28;20448;-85
2021/10/26 01:40:10;;;;;;;5.60;4.97;;;19.70;54.30;;;;;;5041194;28;20443;-86
2021/10/26 01:42:39;;;;;;;5.10;4.70;;;19.80;54.40;;;;;;5026811;28;20558;-86
2021/10/26 01:45:08;;;;;;;5.17;4.63;;;19.70;54.30;;;;;;5027600;28;20447;-86
2021/10/26 01:47:36;;;;;;;4.90;4.50;;;19.70;54.30;;;;;;5027340;28;20533;-85
2021/10/26 01:50:04;;;;;;;6.83;4.47;;;19.80;54.40;;;;;;5027209;28;20482;-86
2021/10/26 01:52:32;;;;;;;5.63;4.40;;;19.80;54.30;;;;;;5029207;28;20447;-86
2021/10/26 01:55:04;;;;;;;4.90;4.47;;;19.80;54.30;;;;;;5025923;28;20432;-85
2021/10/26 01:57:32;;;;;;;6.20;4.73;;;19.80;54.30;;;;;;5026792;28;20423;-85
2021/10/26 02:00:02;;;;;;;5.63;5.10;;;19.80;54.30;;;;;;5022884;28;20491;-87
2021/10/26 02:02:30;;;;;;;6.30;4.80;;;19.80;54.30;;;;;;5035068;28;20442;-87
2021/10/26 02:04:58;;;;;;;5.50;4.90;;;19.70;54.30;;;;;;5036606;28;20465;-87
2021/10/26 02:07:26;;;;;;;5.20;4.70;;;19.70;54.40;;;;;;5037950;28;20482;-87
2021/10/26 02:09:54;;;;;;;4.67;4.27;;;19.70;54.40;;;;;;5035142;28;20501;-87
2021/10/26 02:12:24;;;;;;;5.70;4.70;;;19.80;54.40;;;;;;5032027;28;20467;-87
2021/10/26 02:14:52;;;;;;;5.80;4.97;;;19.80;54.40;;;;;;5033661;28;20455;-87
2021/10/26 02:17:20;;;;;;;7.40;5.50;;;19.70;54.30;;;;;;5037085;28;20435;-87
2021/10/26 02:19:48;;;;;;;4.97;4.47;;;19.80;54.50;;;;;;5030590;28;20481;-87
2021/10/26 02:22:16;;;;;;;4.83;4.43;;;19.70;54.20;;;;;;5025917;28;20551;-87
2021/10/26 02:24:44;;;;;;;4.50;4.10;;;19.80;54.60;;;;;;5039251;28;20465;-87
2021/10/26 02:27:12;;;;;;;7.80;4.50;;;19.70;54.60;;;;;;5044873;28;20466;-87
2021/10/26 02:29:41;;;;;;;5.50;5.00;;;19.70;54.40;;;;;;5044794;28;20458;-87
2021/10/26 02:32:11;;;;;;;4.93;4.53;;;19.80;54.50;;;;;;5045262;28;20435;-87
2021/10/26 02:34:39;;;;;;;6.13;5.03;;;19.70;54.40;;;;;;5045329;28;20492;-87
2021/10/26 02:37:07;;;;;;;6.87;5.20;;;19.70;54.40;;;;;;5045479;28;20442;-87
2021/10/26 02:39:35;;;;;;;5.07;4.57;;;19.70;54.40;;;;;;5045319;28;20434;-87
2021/10/26 02:42:03;;;;;;;5.00;4.50;;;19.80;54.50;;;;;;5045139;28;20533;-87
2021/10/26 02:44:31;;;;;;;5.10;4.60;;;19.70;54.50;;;;;;5045270;28;20446;-86
2021/10/26 02:47:01;;;;;;;5.00;4.47;;;19.80;54.50;;;;;;5044895;28;20477;-88
2021/10/26 02:49:29;;;;;;;5.43;4.93;;;19.70;54.40;;;;;;5044961;28;20459;-85
2021/10/26 02:51:57;;;;;;;5.03;4.33;;;19.70;54.50;;;;;;5045305;28;20510;-84
2021/10/26 02:54:25;;;;;;;5.87;5.00;;;19.70;54.50;;;;;;5045063;28;20496;-85
2021/10/26 02:56:53;;;;;;;4.73;4.30;;;19.70;54.40;;;;;;5045158;28;20489;-89
2021/10/26 02:59:24;;;;;;;5.30;4.80;;;19.80;54.50;;;;;;5044859;28;20446;-89
2021/10/26 03:01:52;;;;;;;4.70;4.30;;;19.80;54.60;;;;;;5044655;28;20504;-88
2021/10/26 03:04:22;;;;;;;7.73;4.67;;;19.70;54.40;;;;;;5045171;28;20458;-90
2021/10/26 03:06:50;;;;;;;5.40;4.47;;;19.70;54.50;;;;;;5044854;28;20470;-89
2021/10/26 03:09:18;;;;;;;7.00;4.60;;;19.70;54.50;;;;;;5045051;28;20589;-89
2021/10/26 03:11:46;;;;;;;5.13;4.73;;;19.70;54.50;;;;;;5037387;28;20459;-89
2021/10/26 03:14:14;;;;;;;6.30;5.07;;;19.70;54.50;;;;;;5024881;28;20459;-90
2021/10/26 03:16:42;;;;;;;5.03;4.63;;;19.70;54.60;;;;;;5025188;28;20451;-90
2021/10/26 03:19:10;;;;;;;6.27;4.50;;;19.70;54.50;;;;;;5025285;28;20542;-90
2021/10/26 03:21:39;;;;;;;4.93;4.50;;;19.70;54.60;;;;;;5025027;28;20439;-90
2021/10/26 03:24:08;;;;;;;5.20;4.70;;;19.70;54.60;;;;;;5024489;28;20442;-90
2021/10/26 03:26:36;;;;;;;5.80;5.30;;;19.70;54.60;;;;;;5024304;28;20475;-91
2021/10/26 03:29:04;;;;;;;5.63;5.13;;;19.70;54.60;;;;;;5024249;28;20518;-90
2021/10/26 03:31:32;;;;;;;5.83;5.23;;;19.70;54.60;;;;;;5024698;28;20467;-90
2021/10/26 03:34:00;;;;;;;5.33;4.83;;;19.70;54.60;;;;;;5024374;28;20463;-90
2021/10/26 03:36:28;;;;;;;6.03;5.30;;;19.70;54.60;;;;;;5024477;28;20475;-89
2021/10/26 03:38:57;;;;;;;7.30;5.53;;;19.60;54.70;;;;;;5024699;28;20431;-90
2021/10/26 03:41:26;;;;;;;6.10;5.30;;;19.60;54.70;;;;;;5023771;28;20447;-90
2021/10/26 03:43:54;;;;;;;5.73;5.03;;;19.60;54.60;;;;;;5024360;28;20435;-90
2021/10/26 03:46:22;;;;;;;5.97;5.37;;;19.60;54.60;;;;;;5024288;28;20451;-91
2021/10/26 03:48:51;;;;;;;5.90;5.30;;;19.60;54.60;;;;;;5023894;28;20482;-90
2021/10/26 03:51:19;;;;;;;5.70;5.20;;;19.60;54.60;;;;;;5024429;28;20502;-89
2021/10/26 03:53:47;;;;;;;6.03;5.03;;;19.60;54.60;;;;;;5024004;28;20443;-91
2021/10/26 03:56:16;;;;;;;5.80;4.80;;;19.60;54.70;;;;;;5024606;28;20472;-91
2021/10/26 03:58:44;;;;;;;4.50;4.10;;;19.60;54.60;;;;;;5024049;28;20439;-91
2021/10/26 04:01:13;;;;;;;5.10;4.70;;;19.60;54.60;;;;;;5022092;28;20452;-91
2021/10/26 04:03:41;;;;;;;5.47;4.27;;;19.60;54.60;;;;;;5015827;28;20509;-91
2021/10/26 04:06:13;;;;;;;7.27;4.57;;;19.60;54.60;;;;;;5022625;28;20570;-91
2021/10/26 04:08:52;;;;;;;7.03;4.90;;;19.60;54.70;;;;;;5023345;28;20502;-91
2021/10/26 04:11:23;;;;;;;4.73;4.33;;;19.60;54.70;;;;;;5026650;28;20491;-89
2021/10/26 04:13:51;;;;;;;4.90;4.50;;;19.70;54.70;;;;;;5043678;28;20446;-90
2021/10/26 04:16:19;;;;;;;5.20;4.27;;;19.60;54.70;;;;;;5043515;28;20442;-90
2021/10/26 04:18:48;;;;;;;4.70;3.80;;;19.70;54.80;;;;;;5044365;28;20443;-90
2021/10/26 04:21:17;;;;;;;4.60;4.20;;;19.70;54.80;;;;;;5044397;28;20481;-92
2021/10/26 04:23:46;;;;;;;5.57;4.43;;;19.70;54.70;;;;;;5044328;28;20442;-90
2021/10/26 04:26:15;;;;;;;5.03;4.53;;;19.70;54.60;;;;;;5044428;28;20504;-94
2021/10/26 04:28:45;;;;;;;4.83;4.37;;;19.70;54.70;;;;;;5044136;28;20525;-90
2021/10/26 04:31:15;;;;;;;4.43;3.97;;;19.70;54.70;;;;;;5044078;28;20485;-91
2021/10/26 04:33:43;;;;;;;5.60;4.67;;;19.70;54.60;;;;;;5043866;28;20446;-91
2021/10/26 04:36:11;;;;;;;4.80;4.10;;;19.70;54.60;;;;;;5044698;28;20458;-91
2021/10/26 04:38:40;;;;;;;4.57;4.17;;;19.70;54.60;;;;;;5044383;28;20508;-91
2021/10/26 04:41:09;;;;;;;5.03;4.50;;;19.70;54.70;;;;;;5044038;28;20454;-91
2021/10/26 04:43:37;;;;;;;4.73;4.27;;;19.70;54.70;;;;;;5043919;28;20446;-91
2021/10/26 04:46:07;;;;;;;4.53;4.13;;;19.70;54.70;;;;;;5044377;28;20446;-90
2021/10/26 04:48:35;;;;;;;4.90;4.40;;;19.70;54.60;;;;;;5044114;28;20455;-91
2021/10/26 04:51:03;;;;;;;4.50;4.10;;;19.70;54.70;;;;;;5043988;28;20474;-91
2021/10/26 04:53:31;;;;;;;3.97;3.67;;;19.70;54.60;;;;;;5045969;28;20443;-91
2021/10/26 04:56:04;;;;;;;6.13;4.10;;;19.70;54.70;;;;;;5047943;28;20464;-92
2021/10/26 04:58:32;;;;;;;4.93;4.33;;;19.70;54.70;;;;;;5048394;28;20506;-92
2021/10/26 05:01:00;;;;;;;4.40;4.10;;;19.70;54.60;;;;;;5048211;28;20512;-92
2021/10/26 05:03:31;;;;;;;5.10;4.10;;;19.70;54.70;;;;;;5048136;28;20513;-92
2021/10/26 05:05:59;;;;;;;4.60;4.20;;;19.70;54.60;;;;;;5030044;28;20455;-90
2021/10/26 05:08:28;;;;;;;6.20;4.17;;;19.70;54.70;;;;;;5038752;28;20467;-91
2021/10/26 05:10:56;;;;;;;4.83;4.37;;;19.70;54.70;;;;;;5028134;28;20520;-91
2021/10/26 05:13:26;;;;;;;4.20;3.90;;;19.70;54.60;;;;;;5027702;28;20455;-89
2021/10/26 05:15:55;;;;;;;4.30;4.00;;;19.70;54.80;;;;;;5026858;28;20501;-90
2021/10/26 05:18:24;;;;;;;4.03;3.73;;;19.70;54.70;;;;;;5027260;28;20446;-90
2021/10/26 05:20:54;;;;;;;4.33;3.97;;;19.70;54.70;;;;;;5027509;28;20460;-90
2021/10/26 05:23:23;;;;;;;4.87;3.80;;;19.70;54.70;;;;;;5027965;28;20426;-91
2021/10/26 05:25:52;;;;;;;3.93;3.63;;;19.70;54.60;;;;;;5027632;28;20434;-91
2021/10/26 05:28:20;;;;;;;4.00;3.63;;;19.70;54.70;;;;;;5027322;28;20472;-91
2021/10/26 05:30:48;;;;;;;4.13;3.77;;;19.70;54.70;;;;;;5026974;28;20448;-91
2021/10/26 05:33:16;;;;;;;4.40;3.90;;;19.70;54.70;;;;;;5027574;28;20471;-91
2021/10/26 05:35:44;;;;;;;4.30;4.00;;;19.70;54.70;;;;;;5027103;28;20475;-91
2021/10/26 05:38:14;;;;;;;4.47;4.10;;;19.70;54.70;;;;;;5026850;28;20501;-91
2021/10/26 05:40:43;;;;;;;4.77;4.37;;;19.70;54.70;;;;;;5026678;28;20451;-90
2021/10/26 05:43:11;;;;;;;4.87;4.33;;;19.70;54.70;;;;;;5027098;28;20528;-90
2021/10/26 05:45:45;;;;;;;4.33;4.03;;;19.70;54.70;;;;;;5026859;28;20471;-90
2021/10/26 05:48:13;;;;;;;4.40;4.10;;;19.70;54.70;;;;;;5026528;28;20559;-91
2021/10/26 05:50:41;;;;;;;4.00;3.50;;;19.70;54.60;;;;;;5026859;28;20448;-91
2021/10/26 05:53:09;;;;;;;4.63;4.23;;;19.70;54.70;;;;;;5027181;28;20473;-91
2021/10/26 05:55:39;;;;;;;7.90;4.67;;;19.70;54.70;;;;;;5026895;28;20443;-90
2021/10/26 05:58:07;;;;;;;4.30;4.00;;;19.70;54.70;;;;;;5026732;28;20495;-90
2021/10/26 06:00:35;;;;;;;5.10;4.10;;;19.70;54.60;;;;;;5026254;28;20439;-90
2021/10/26 06:03:03;;;;;;;4.97;4.57;;;19.70;54.70;;;;;;5026800;28;20446;-90
2021/10/26 06:05:31;;;;;;;4.20;3.90;;;19.70;54.60;;;;;;5028408;28;20409;-89
2021/10/26 06:07:59;;;;;;;4.03;3.73;;;19.70;54.70;;;;;;5028231;28;20455;-90
2021/10/26 06:10:29;;;;;;;5.53;4.37;;;19.70;54.70;;;;;;5029324;28;20521;-90
2021/10/26 06:13:03;;;;;;;5.70;4.23;;;19.70;54.80;;;;;;5026204;28;20448;-89
2021/10/26 06:15:54;;;;;;;4.60;4.13;;;19.70;54.70;;;;;;5027123;28;20467;-89
2021/10/26 06:18:23;;;;;;;4.30;4.00;;;19.70;54.80;;;;;;5022906;28;20413;-90
2021/10/26 06:20:51;;;;;;;5.90;4.77;;;19.70;54.70;;;;;;5025468;28;20474;-90
2021/10/26 06:23:19;;;;;;;4.33;3.93;;;19.70;54.80;;;;;;5025515;28;20477;-91
2021/10/26 06:25:47;;;;;;;4.73;4.17;;;19.70;54.80;;;;;;5025572;28;20423;-90
2021/10/26 06:28:16;;;;;;;6.00;4.23;;;19.70;54.80;;;;;;5026230;28;20477;-91
2021/10/26 06:30:47;;;;;;;4.77;4.37;;;19.70;54.90;;;;;;5026307;28;20447;-90
2021/10/26 06:33:15;;;;;;;4.67;4.17;;;19.70;54.80;;;;;;5026123;28;20485;-90
2021/10/26 06:35:44;;;;;;;4.73;4.37;;;19.70;54.80;;;;;;5026487;28;20513;-90
2021/10/26 06:38:12;;;;;;;3.73;3.43;;;19.70;54.80;;;;;;5026293;28;20439;-90
2021/10/26 06:40:40;;;;;;;5.07;4.07;;;19.70;54.80;;;;;;5026823;28;20432;-90
2021/10/26 06:43:08;;;;;;;4.77;4.37;;;19.70;54.80;;;;;;5026514;28;20504;-91
2021/10/26 06:45:38;;;;;;;4.20;3.90;;;19.70;54.80;;;;;;5026323;28;20471;-91
2021/10/26 06:48:06;;;;;;;4.37;4.00;;;19.70;54.80;;;;;;5025276;28;20485;-91
2021/10/26 06:50:34;;;;;;;4.90;3.90;;;19.70;54.80;;;;;;5024621;28;20458;-91
2021/10/26 06:53:02;;;;;;;3.93;3.63;;;19.80;54.80;;;;;;5025973;28;20439;-90
2021/10/26 06:55:31;;;;;;;4.67;4.27;;;19.70;54.60;;;;;;5025428;28;20471;-91
2021/10/26 06:57:59;;;;;;;4.13;3.83;;;19.80;54.70;;;;;;5025001;28;20494;-91
2021/10/26 07:00:27;;;;;;;4.20;3.90;;;19.70;54.60;;;;;;5026421;28;20501;-90
2021/10/26 07:03:04;;;;;;;4.43;4.10;;;19.70;54.60;;;;;;5031671;28;20447;-91
2021/10/26 07:05:39;;;;;;;4.73;4.33;;;19.80;54.80;;;;;;5026745;28;20505;-91
2021/10/26 07:08:07;;;;;;;5.10;4.70;;;19.80;54.70;;;;;;5025181;28;20427;-91
2021/10/26 07:10:35;;;;;;;4.23;3.83;;;19.80;54.70;;;;;;5024774;28;20468;-91
2021/10/26 07:13:04;;;;;;;12.63;4.60;;;19.80;54.60;;;;;;5026340;28;20455;-90
2021/10/26 07:15:34;;;;;;;4.00;3.70;;;19.80;54.70;;;;;;5025808;28;20451;-90
2021/10/26 07:18:09;;;;;;;4.63;4.23;;;19.80;54.60;;;;;;5026603;28;20451;-90
2021/10/26 07:20:39;;;;;;;4.37;4.03;;;19.80;54.60;;;;;;5025640;28;20419;-90
2021/10/26 07:23:12;;;;;;;4.97;4.47;;;19.80;54.60;;;;;;5025501;28;20517;-90
2021/10/26 07:25:40;;;;;;;4.47;4.13;;;19.80;54.60;;;;;;5025165;28;20440;-90
2021/10/26 07:28:08;;;;;;;4.80;3.90;;;19.90;54.60;;;;;;5025178;28;20422;-90
2021/10/26 07:30:36;;;;;;;4.93;4.53;;;19.90;54.70;;;;;;5024525;28;20475;-90
2021/10/26 07:33:08;;;;;;;4.40;4.00;;;19.90;54.50;;;;;;5025067;28;20505;-90
2021/10/26 07:35:40;;;;;;;4.30;3.97;;;19.90;54.50;;;;;;5025213;28;20447;-91
2021/10/26 07:38:12;;;;;;;4.33;4.03;;;19.90;54.50;;;;;;5024804;28;20444;-91
2021/10/26 07:40:40;;;;;;;4.67;4.00;;;19.90;54.50;;;;;;5024336;28;20423;-91
2021/10/26 07:43:09;;;;;;;4.97;4.50;;;19.90;54.50;;;;;;5024584;28;20516;-90
2021/10/26 07:45:37;;;;;;;4.20;3.90;;;19.90;54.40;;;;;;5022538;28;20447;-89
2021/10/26 07:48:07;;;;;;;4.60;4.23;;;19.90;54.40;;;;;;5022987;28;20444;-90
2021/10/26 07:50:35;;;;;;;5.17;4.17;;;20.00;54.50;;;;;;5024204;28;20483;-90
2021/10/26 07:53:04;;;;;;;4.80;4.40;;;20.00;54.50;;;;;;5024918;28;20517;-90
2021/10/26 07:55:32;;;;;;;4.80;4.40;;;20.00;54.50;;;;;;5024485;28;20467;-90
2021/10/26 07:58:00;;;;;;;5.03;3.97;;;20.00;54.50;;;;;;5024683;28;20451;-90
2021/10/26 08:00:28;;;;;;;6.80;4.00;;;20.00;54.50;;;;;;5022503;28;20451;-90
2021/10/26 08:02:56;;;;;;;4.33;3.93;;;20.00;54.50;;;;;;5023975;28;20445;-90
2021/10/26 08:05:26;;;;;;;5.07;4.33;;;20.00;54.60;;;;;;5024358;28;20456;-90
2021/10/26 08:07:54;;;;;;;4.30;3.90;;;20.00;54.40;;;;;;5022136;28;20452;-90
2021/10/26 08:10:23;;;;;;;5.00;4.60;;;20.00;54.40;;;;;;5024139;28;20499;-90
2021/10/26 08:12:51;;;;;;;4.67;4.20;;;20.00;54.40;;;;;;5024170;28;20470;-91
2021/10/26 08:15:20;;;;;;;4.77;4.30;;;20.10;54.50;;;;;;5024870;28;20489;-90
2021/10/26 08:17:48;;;;;;;5.27;4.80;;;20.10;54.40;;;;;;5024509;28;20486;-90
2021/10/26 08:20:16;;;;;;;4.20;3.83;;;20.10;54.40;;;;;;5024220;28;20515;-89
2021/10/26 08:22:46;;;;;;;4.90;4.27;;;20.10;54.40;;;;;;5024573;28;20444;-90
2021/10/26 08:25:19;;;;;;;4.53;4.13;;;20.10;54.40;;;;;;5024308;28;20443;-90
2021/10/26 08:27:48;;;;;;;4.07;3.60;;;20.10;54.40;;;;;;5024372;28;20428;-91
2021/10/26 08:30:28;;;;;;;5.27;4.20;;;20.10;54.40;;;;;;5027346;28;20472;-91
2021/10/26 08:32:59;;;;;;;4.63;4.23;;;20.20;54.40;;;;;;5027497;28;20443;-90
2021/10/26 08:35:27;;;;;;;4.47;4.13;;;20.20;54.30;;;;;;5028519;28;20448;-90
2021/10/26 08:37:59;;;;;;;5.00;4.43;;;20.30;54.30;;;;;;5027956;28;20450;-90
2021/10/26 08:40:28;;;;;;;5.10;3.93;;;20.30;54.20;;;;;;5028453;28;20427;-91
2021/10/26 08:43:00;;;;;;;4.50;4.13;;;20.30;54.20;;;;;;5028340;28;20440;-91
2021/10/26 08:45:28;;;;;;;5.00;4.50;;;20.30;54.20;;;;;;5028547;28;20493;-90
2021/10/26 08:47:57;;;;;;;4.50;4.03;;;20.30;54.10;;;;;;5028569;28;20448;-91
2021/10/26 08:50:27;;;;;;;5.63;3.97;;;20.40;54.20;;;;;;5028107;28;20486;-92
2021/10/26 08:52:57;;;;;;;4.57;4.10;;;20.40;54.20;;;;;;5028656;28;20439;-89
2021/10/26 08:55:25;;;;;;;4.20;3.90;;;20.50;54.10;;;;;;5025980;28;20441;-86
2021/10/26 08:57:55;;;;;;;5.50;4.23;;;20.50;54.00;;;;;;5031616;28;20447;-88
2021/10/26 09:00:23;;;;;;;4.80;4.37;;;20.60;54.10;;;;;;5037360;28;20442;-90
2021/10/26 09:02:53;;;;;;;5.40;4.90;;;20.60;53.90;;;;;;5036059;28;20462;-90
2021/10/26 09:05:23;;;;;;;6.07;4.80;;;20.70;53.70;;;;;;5027801;28;20501;-88
2021/10/26 09:08:06;;;;;;;4.73;4.33;;;20.70;53.60;;;;;;5045281;28;20438;-90
2021/10/26 09:10:34;;;;;;;5.10;4.50;;;20.80;53.60;;;;;;5046574;28;20531;-87
2021/10/26 09:18:42;;;;;;;5.07;4.67;;;21.00;53.20;;;;;;5015299;28;20460;-87
2021/10/26 09:21:27;;;;;;;6.03;4.67;;;21.10;53.20;;;;;;5025102;28;20402;-85
2021/10/26 09:23:57;;;;;;;5.73;5.10;;;21.10;53.30;;;;;;5007968;28;20530;-86
2021/10/26 09:26:26;;;;;;;5.20;4.73;;;21.10;53.40;;;;;;5015957;28;20509;-85
2021/10/26 09:28:55;;;;;;;6.33;5.40;;;21.20;53.20;;;;;;5027224;28;20451;-84
2021/10/26 09:31:24;;;;;;;6.80;5.40;;;21.20;53.10;;;;;;5027569;28;20481;-85
2021/10/26 09:33:58;;;;;;;6.80;5.30;;;21.30;53.10;;;;;;5046959;28;20446;-84
2021/10/26 09:36:27;;;;;;;6.20;5.10;;;21.30;53.00;;;;;;5007089;28;20428;-84
2021/10/26 09:39:11;;;;;;;5.60;5.07;;;21.30;53.00;;;;;;5006840;28;20411;-83
2021/10/26 09:41:58;;;;;;;5.40;4.90;;;21.30;53.00;;;;;;5007376;28;20454;-84
2021/10/26 09:44:28;;;;;;;6.17;5.53;;;21.30;52.90;;;;;;5007040;28;20468;-84
2021/10/26 09:46:58;;;;;;;6.63;5.33;;;21.30;53.00;;;;;;5019974;28;20453;-85
2021/10/26 09:49:26;;;;;;;5.90;5.20;;;21.30;52.90;;;;;;5026808;28;20520;-84
2021/10/26 09:52:16;;;;;;;7.90;5.30;;;21.30;53.00;;;;;;5017111;28;20463;-87
2021/10/26 09:54:47;;;;;;;6.23;5.70;;;21.20;52.90;;;;;;5026679;28;20443;-85
2021/10/26 09:57:16;;;;;;;6.27;5.67;;;21.20;53.10;;;;;;5026720;28;20482;-86
2021/10/26 09:59:52;;;;;;;7.03;5.93;;;21.30;53.00;;;;;;5026631;28;20444;-84
2021/10/26 10:02:22;;;;;;;5.70;5.10;;;21.30;53.10;;;;;;5026178;28;20451;-85
2021/10/26 10:05:06;;;;;;;8.30;5.93;;;21.30;53.00;;;;;;5026680;28;20458;-85
2021/10/26 10:07:35;;;;;;;5.77;5.23;;;21.30;52.90;;;;;;5028793;28;20466;-88
2021/10/26 10:10:07;;;;;;;6.07;5.37;;;21.30;53.00;;;;;;5024539;28;20447;-81
2021/10/26 10:12:36;;;;;;;7.57;5.07;;;21.30;53.00;;;;;;5026703;28;20463;-86
2021/10/26 10:15:06;;;;;;;8.07;6.07;;;21.30;53.00;;;;;;5007181;28;20437;-85
2021/10/26 10:17:35;;;;;;;8.40;5.83;;;21.40;53.00;;;;;;5006347;28;20440;-85
2021/10/26 10:20:04;;;;;;;6.40;5.80;;;21.50;53.20;;;;;;5006781;28;20432;-85
2021/10/26 10:22:32;;;;;;;5.53;5.03;;;21.70;53.20;;;;;;5005816;28;20440;-85
2021/10/26 10:25:01;;;;;;;7.20;5.50;;;21.80;52.90;;;;;;5006397;28;20456;-86
2021/10/26 10:27:32;;;;;;;7.43;5.30;;;21.80;52.60;;;;;;5006638;28;20483;-86
2021/10/26 10:30:00;;;;;;;7.70;5.87;;;21.80;52.50;;;;;;5006779;28;20436;-86
2021/10/26 10:32:30;;;;;;;7.07;5.67;;;21.90;52.50;;;;;;5006292;28;20484;-85
2021/10/26 10:35:00;;;;;;;5.90;5.30;;;21.90;52.50;;;;;;5005248;28;20468;-85
2021/10/26 10:37:48;;;;;;;7.20;5.67;;;21.90;52.50;;;;;;4998923;28;20448;-85
2021/10/26 10:40:23;;;;;;;6.53;5.57;;;21.90;52.50;;;;;;5000000;28;20440;-85
2021/10/26 10:42:53;;;;;;;5.90;5.30;;;22.20;52.90;;;;;;5004247;28;20422;-86
2021/10/26 10:45:25;;;;;;;7.47;5.83;;;22.50;52.60;;;;;;5003446;28;20476;-86
2021/10/26 10:47:54;;;;;;;6.83;5.60;;;22.70;52.30;;;;;;5009336;28;20453;-87
2021/10/26 10:50:33;;;;;;;7.37;5.90;;;23.00;51.90;;;;;;5010257;28;20428;-86
2021/10/26 10:53:08;;;;;;;9.47;6.20;;;23.20;51.60;;;;;;4994896;28;20423;-87
2021/10/26 10:55:40;;;;;;;5.43;4.83;;;23.30;51.50;;;;;;5006900;28;20399;-86
2021/10/26 10:58:32;;;;;;;5.83;5.27;;;23.50;52.00;;;;;;5008805;28;20451;-86
2021/10/26 11:01:34;;;;;;;6.10;5.50;;;23.40;50.80;;;;;;5001941;28;20452;-86
2021/10/26 11:04:18;;;;;;;5.67;5.03;;;23.30;51.00;;;;;;4922711;29;20430;-86
2021/10/26 11:06:57;;;;;;;7.43;5.63;;;23.30;51.40;;;;;;4925458;29;20465;-86
2021/10/26 11:09:41;;;;;;;9.27;5.97;;;23.40;51.50;;;;;;4971391;28;20556;-85
2021/10/26 11:12:12;;;;;;;5.80;5.30;;;23.40;51.10;;;;;;5001087;28;20470;-85
2021/10/26 11:14:45;;;;;;;11.63;5.60;;;23.50;50.90;;;;;;5016435;28;20502;-85
2021/10/26 11:18:00;;;;;;;7.93;5.27;;;23.40;50.90;;;;;;5022833;28;20467;-87
2021/10/26 11:20:51;;;;;;;6.30;4.80;;;23.30;51.40;;;;;;5014631;28;20466;-87
2021/10/26 11:23:32;;;;;;;5.67;5.17;;;23.20;51.40;;;;;;5025941;28;20455;-88
2021/10/26 11:26:05;;;;;;;7.80;5.50;;;23.40;52.00;;;;;;5024086;28;20487;-87
2021/10/26 11:28:54;;;;;;;6.70;5.30;;;23.50;51.60;;;;;;5024732;28;20466;-88
2021/10/26 11:31:26;;;;;;;5.67;5.17;;;23.70;51.60;;;;;;5014825;28;20438;-88
2021/10/26 11:33:55;;;;;;;5.67;5.03;;;24.80;50.90;;;;;;5016200;28;20431;-86
2021/10/26 11:36:30;;;;;;;5.23;4.83;;;24.90;49.40;;;;;;5020866;28;20512;-86
2021/10/26 11:38:59;;;;;;;5.43;4.93;;;24.60;49.40;;;;;;5014779;28;20479;-87
2021/10/26 11:41:28;;;;;;;7.83;5.20;;;24.50;49.60;;;;;;5019658;28;20433;-87
2021/10/26 11:43:57;;;;;;;6.60;4.40;;;24.30;49.80;;;;;;5019075;28;20431;-87
2021/10/26 11:46:31;;;;;;;6.73;4.73;;;24.30;50.20;;;;;;5019646;28;20455;-86
2021/10/26 11:49:03;;;;;;;4.53;4.13;;;24.30;50.30;;;;;;5019067;28;20467;-86
2021/10/26 11:51:34;;;;;;;6.10;5.00;;;24.30;50.30;;;;;;5020461;28;20527;-87
2021/10/26 11:54:04;;;;;;;8.80;4.90;;;24.40;50.50;;;;;;5016638;28;20460;-87
2021/10/26 11:56:35;;;;;;;4.73;4.07;;;24.60;50.20;;;;;;5021254;28;20427;-87
2021/10/26 11:59:11;;;;;;;6.20;5.10;;;24.60;49.90;;;;;;5022950;28;20507;-87
2021/10/26 12:01:47;;;;;;;7.67;5.13;;;24.70;49.90;;;;;;5018943;28;20447;-85
2021/10/26 12:04:17;;;;;;;4.80;4.37;;;24.60;49.80;;;;;;5020639;28;20451;-86
2021/10/26 12:06:46;;;;;;;5.10;4.43;;;24.40;49.80;;;;;;5022240;28;20426;-87
2021/10/26 12:09:15;;;;;;;5.23;4.83;;;24.30;50.10;;;;;;5025998;28;20417;-85
2021/10/26 12:11:45;;;;;;;4.93;4.53;;;24.20;50.30;;;;;;5020853;28;20565;-85
2021/10/26 12:14:15;;;;;;;7.80;5.07;;;24.10;50.60;;;;;;5030540;28;20463;-84
2021/10/26 12:17:11;;;;;;;6.00;5.13;;;23.90;50.60;;;;;;5027485;28;20440;-83
2021/10/26 12:19:40;;;;;;;6.17;4.70;;;23.80;51.00;;;;;;5022918;28;20406;-85
2021/10/26 12:22:16;;;;;;;5.20;4.80;;;23.80;51.10;;;;;;5025891;28;20447;-85
2021/10/26 12:24:51;;;;;;;5.60;5.20;;;23.80;51.00;;;;;;5026362;28;20481;-85
2021/10/26 12:27:33;;;;;;;6.70;4.73;;;23.80;51.20;;;;;;5017609;28;20446;-84
2021/10/26 12:30:12;;;;;;;9.73;4.60;;;23.80;51.20;;;;;;5022063;28;20422;-85
2021/10/26 12:32:43;;;;;;;4.77;4.37;;;23.80;51.20;;;;;;5016354;28;20495;-84
2021/10/26 12:35:12;;;;;;;5.63;5.03;;;23.70;51.20;;;;;;5025626;28;20525;-84
2021/10/26 12:37:40;;;;;;;5.00;4.47;;;23.80;51.50;;;;;;5022091;28;20499;-84
2021/10/26 12:40:14;;;;;;;5.13;4.70;;;23.80;51.30;;;;;;5024046;28;20503;-84
2021/10/26 12:42:43;;;;;;;7.47;5.10;;;23.70;51.20;;;;;;5018315;28;20482;-85
2021/10/26 12:45:12;;;;;;;5.03;4.40;;;23.60;51.20;;;;;;5022105;28;20430;-84
2021/10/26 12:47:56;;;;;;;5.90;5.30;;;23.60;51.60;;;;;;5021105;28;20438;-84
2021/10/26 12:50:25;;;;;;;5.20;4.70;;;23.50;51.60;;;;;;5016633;28;20455;-84
2021/10/26 12:53:11;;;;;;;5.27;4.70;;;23.50;51.60;;;;;;5022788;28;20453;-85
2021/10/26 12:55:41;;;;;;;4.83;4.43;;;23.50;51.70;;;;;;5015545;28;20456;-85
2021/10/26 12:58:36;;;;;;;5.17;4.67;;;23.50;51.70;;;;;;5024630;28;20466;-85
2021/10/26 13:01:06;;;;;;;5.43;4.93;;;23.50;51.70;;;;;;5023851;28;20481;-84
2021/10/26 13:03:38;;;;;;;5.80;4.77;;;23.50;51.70;;;;;;5031471;28;20452;-85
2021/10/26 13:06:06;;;;;;;5.57;4.90;;;23.50;51.80;;;;;;5025262;28;20434;-84
2021/10/26 13:08:35;;;;;;;5.70;5.20;;;23.60;51.80;;;;;;5020061;28;20521;-82
2021/10/26 13:11:25;;;;;;;5.07;4.27;;;23.70;51.70;;;;;;5018845;28;20438;-82